sensor_id;sensor_type;location;lat;lon;timestamp;pressure;altitude;pressure_sealevel;temperature;humidity
76052;BME280;64751;48.708;9.710;2023-07-13T14:32:36;97702.22;;;25.17;33.82
76052;BME280;64751;48.708;9.710;2023-07-13T14:35:04;97697.34;;;25.00;33.29
76052;BME280;64751;48.708;9.710;2023-07-13T14:37:32;97695.72;;;24.95;34.10
76052;BME280;64751;48.708;9.710;2023-07-13T14:40:00;97695.63;;;25.14;33.81
76052;BME280;64751;48.708;9.710;2023-07-13T14:42:28;97705.91;;;25.35;33.14
76052;BME280;64751;48.708;9.710;2023-07-13T14:44:55;97704.50;;;25.45;32.17
76052;BME280;64751;48.708;9.710;2023-07-13T14:47:23;97706.63;;;25.62;31.83
76052;BME280;64751;48.708;9.710;2023-07-13T14:49:52;97707.84;;;25.68;33.93
76052;BME280;64751;48.708;9.710;2023-07-13T14:52:21;97713.97;;;25.61;34.20
76052;BME280;64751;48.708;9.710;2023-07-13T14:54:50;97704.41;;;25.71;33.35
76052;BME280;64751;48.708;9.710;2023-07-13T14:57:19;97706.50;;;25.84;32.88
76052;BME280;64751;48.708;9.710;2023-07-13T14:59:47;97712.00;;;25.95;32.58
76052;BME280;64751;48.708;9.710;2023-07-13T15:02:23;97702.69;;;25.89;31.62
76052;BME280;64751;48.708;9.710;2023-07-13T15:04:54;97704.06;;;25.76;31.70
76052;BME280;64751;48.708;9.710;2023-07-13T15:07:22;97706.09;;;25.49;32.38
76052;BME280;64751;48.708;9.710;2023-07-13T15:09:49;97705.66;;;25.44;34.21
76052;BME280;64751;48.708;9.710;2023-07-13T15:12:17;97705.41;;;25.26;32.95
76052;BME280;64751;48.708;9.710;2023-07-13T15:14:46;97711.94;;;25.22;32.34
76052;BME280;64751;48.708;9.710;2023-07-13T15:17:23;97706.03;;;25.12;32.05
76052;BME280;64751;48.708;9.710;2023-07-13T15:19:53;97702.25;;;25.20;32.01
76052;BME280;64751;48.708;9.710;2023-07-13T15:22:22;97713.34;;;25.42;32.49
76052;BME280;64751;48.708;9.710;2023-07-13T15:24:50;97707.69;;;25.54;31.93
76052;BME280;64751;48.708;9.710;2023-07-13T15:27:18;97705.34;;;25.49;33.51
76052;BME280;64751;48.708;9.710;2023-07-13T15:29:45;97720.25;;;25.39;32.91
76052;BME280;64751;48.708;9.710;2023-07-13T15:32:14;97713.69;;;25.40;32.66
76052;BME280;64751;48.708;9.710;2023-07-13T15:34:42;97709.03;;;25.37;35.24
76052;BME280;64751;48.708;9.710;2023-07-13T15:37:15;97703.03;;;25.21;33.13
76052;BME280;64751;48.708;9.710;2023-07-13T15:39:43;97711.72;;;25.04;32.78
76052;BME280;64751;48.708;9.710;2023-07-13T15:42:14;97712.63;;;25.15;31.84
76052;BME280;64751;48.708;9.710;2023-07-13T15:44:42;97709.75;;;25.34;32.02
76052;BME280;64751;48.708;9.710;2023-07-13T15:47:11;97704.88;;;25.43;31.25
76052;BME280;64751;48.708;9.710;2023-07-13T15:49:39;97709.22;;;25.51;31.17
76052;BME280;64751;48.708;9.710;2023-07-13T15:52:16;97712.34;;;25.53;31.01
76052;BME280;64751;48.708;9.710;2023-07-13T15:54:46;97716.69;;;25.61;32.15
76052;BME280;64751;48.708;9.710;2023-07-13T15:57:14;97720.94;;;25.62;32.43
76052;BME280;64751;48.708;9.710;2023-07-13T15:59:43;97703.34;;;25.46;32.55
76052;BME280;64751;48.708;9.710;2023-07-13T16:02:13;97712.47;;;25.34;31.35
76052;BME280;64751;48.708;9.710;2023-07-13T16:04:41;97711.09;;;25.17;32.92
76052;BME280;64751;48.708;9.710;2023-07-13T16:07:10;97715.94;;;25.05;31.88
76052;BME280;64751;48.708;9.710;2023-07-13T16:09:40;97704.69;;;24.99;34.42
76052;BME280;64751;48.708;9.710;2023-07-13T16:12:10;97704.53;;;24.89;33.29
76052;BME280;64751;48.708;9.710;2023-07-13T16:14:38;97701.66;;;25.04;34.02
76052;BME280;64751;48.708;9.710;2023-07-13T16:17:09;97699.28;;;24.99;34.98
76052;BME280;64751;48.708;9.710;2023-07-13T16:19:37;97705.28;;;24.86;33.36
76052;BME280;64751;48.708;9.710;2023-07-13T16:22:05;97710.34;;;24.65;33.06
76052;BME280;64751;48.708;9.710;2023-07-13T16:24:43;97715.22;;;24.56;34.04
76052;BME280;64751;48.708;9.710;2023-07-13T16:27:11;97713.13;;;24.45;33.35
76052;BME280;64751;48.708;9.710;2023-07-13T16:29:39;97719.97;;;24.39;33.51
76052;BME280;64751;48.708;9.710;2023-07-13T16:32:10;97710.50;;;24.26;33.58
76052;BME280;64751;48.708;9.710;2023-07-13T16:34:40;97716.03;;;24.33;33.53
76052;BME280;64751;48.708;9.710;2023-07-13T16:37:14;97712.47;;;24.52;34.07
76052;BME280;64751;48.708;9.710;2023-07-13T16:39:49;97719.34;;;24.72;33.86
76052;BME280;64751;48.708;9.710;2023-07-13T16:42:19;97710.31;;;24.87;33.22
76052;BME280;64751;48.708;9.710;2023-07-13T16:44:47;97720.84;;;24.96;31.77
76052;BME280;64751;48.708;9.710;2023-07-13T16:47:16;97718.25;;;25.03;33.30
76052;BME280;64751;48.708;9.710;2023-07-13T16:49:45;97723.50;;;24.92;34.48
76052;BME280;64751;48.708;9.710;2023-07-13T16:52:15;97728.44;;;24.87;33.60
76052;BME280;64751;48.708;9.710;2023-07-13T16:54:48;97727.63;;;24.83;32.99
76052;BME280;64751;48.708;9.710;2023-07-13T16:57:18;97733.84;;;24.87;33.53
76052;BME280;64751;48.708;9.710;2023-07-13T16:59:47;97736.97;;;24.89;33.17
76052;BME280;64751;48.708;9.710;2023-07-13T17:02:38;97723.53;;;24.70;33.12
76052;BME280;64751;48.708;9.710;2023-07-13T17:05:09;97722.59;;;24.59;33.21
76052;BME280;64751;48.708;9.710;2023-07-13T17:07:38;97718.16;;;24.47;34.22
76052;BME280;64751;48.708;9.710;2023-07-13T17:10:16;97716.81;;;24.34;34.00
76052;BME280;64751;48.708;9.710;2023-07-13T17:12:45;97718.59;;;24.26;34.71
76052;BME280;64751;48.708;9.710;2023-07-13T17:15:14;97717.47;;;24.27;34.10
76052;BME280;64751;48.708;9.710;2023-07-13T17:17:41;97720.59;;;24.29;33.72
76052;BME280;64751;48.708;9.710;2023-07-13T17:20:16;97727.13;;;24.28;34.22
76052;BME280;64751;48.708;9.710;2023-07-13T17:22:45;97732.88;;;24.27;34.76
76052;BME280;64751;48.708;9.710;2023-07-13T17:25:14;97729.88;;;24.09;34.69
76052;BME280;64751;48.708;9.710;2023-07-13T17:27:42;97728.31;;;24.08;35.75
76052;BME280;64751;48.708;9.710;2023-07-13T17:30:14;97732.16;;;24.07;35.65
76052;BME280;64751;48.708;9.710;2023-07-13T17:32:43;97737.97;;;24.09;36.54
76052;BME280;64751;48.708;9.710;2023-07-13T17:35:22;97738.47;;;23.96;36.73
76052;BME280;64751;48.708;9.710;2023-07-13T17:37:52;97739.41;;;23.84;35.30
76052;BME280;64751;48.708;9.710;2023-07-13T17:40:21;97737.84;;;23.83;35.13
76052;BME280;64751;48.708;9.710;2023-07-13T17:42:50;97734.38;;;23.83;34.65
76052;BME280;64751;48.708;9.710;2023-07-13T17:45:22;97730.19;;;23.85;34.72
76052;BME280;64751;48.708;9.710;2023-07-13T17:47:50;97732.91;;;23.85;36.57
76052;BME280;64751;48.708;9.710;2023-07-13T17:50:25;97729.84;;;23.87;37.12
76052;BME280;64751;48.708;9.710;2023-07-13T17:53:02;97733.22;;;23.84;36.12
76052;BME280;64751;48.708;9.710;2023-07-13T17:55:34;97739.00;;;23.82;35.10
76052;BME280;64751;48.708;9.710;2023-07-13T17:58:03;97739.06;;;23.86;36.28
76052;BME280;64751;48.708;9.710;2023-07-13T18:00:32;97735.16;;;23.83;36.38
76052;BME280;64751;48.708;9.710;2023-07-13T18:03:04;97743.25;;;23.83;36.76
76052;BME280;64751;48.708;9.710;2023-07-13T18:05:33;97740.78;;;23.74;35.64
76052;BME280;64751;48.708;9.710;2023-07-13T18:08:02;97739.94;;;23.70;35.27
76052;BME280;64751;48.708;9.710;2023-07-13T18:10:31;97746.41;;;23.66;37.57
76052;BME280;64751;48.708;9.710;2023-07-13T18:13:00;97743.50;;;23.55;37.37
76052;BME280;64751;48.708;9.710;2023-07-13T18:15:30;97743.72;;;23.47;36.66
76052;BME280;64751;48.708;9.710;2023-07-13T18:17:59;97750.44;;;23.37;36.12
76052;BME280;64751;48.708;9.710;2023-07-13T18:20:30;97750.81;;;23.36;36.62
76052;BME280;64751;48.708;9.710;2023-07-13T18:22:59;97751.16;;;23.34;36.34
76052;BME280;64751;48.708;9.710;2023-07-13T18:25:29;97752.25;;;23.33;37.09
76052;BME280;64751;48.708;9.710;2023-07-13T18:27:57;97761.03;;;23.30;37.47
76052;BME280;64751;48.708;9.710;2023-07-13T18:30:26;97759.84;;;23.28;39.08
76052;BME280;64751;48.708;9.710;2023-07-13T18:32:54;97756.97;;;23.21;37.01
76052;BME280;64751;48.708;9.710;2023-07-13T18:35:27;97754.28;;;23.21;37.41
76052;BME280;64751;48.708;9.710;2023-07-13T18:37:56;97760.84;;;23.20;38.44
76052;BME280;64751;48.708;9.710;2023-07-13T18:40:24;97761.09;;;23.15;39.70
76052;BME280;64751;48.708;9.710;2023-07-13T18:42:53;97760.50;;;23.05;38.27
76052;BME280;64751;48.708;9.710;2023-07-13T18:45:21;97774.97;;;22.97;37.79
76052;BME280;64751;48.708;9.710;2023-07-13T18:47:55;97772.97;;;22.94;39.87
76052;BME280;64751;48.708;9.710;2023-07-13T18:50:28;97769.31;;;22.87;38.43
76052;BME280;64751;48.708;9.710;2023-07-13T18:52:56;97779.34;;;22.86;39.61
76052;BME280;64751;48.708;9.710;2023-07-13T18:55:24;97778.03;;;22.80;39.29
76052;BME280;64751;48.708;9.710;2023-07-13T18:57:52;97779.84;;;22.76;39.26
76052;BME280;64751;48.708;9.710;2023-07-13T19:00:22;97780.53;;;22.73;41.40
76052;BME280;64751;48.708;9.710;2023-07-13T19:02:54;97790.47;;;22.69;41.81
76052;BME280;64751;48.708;9.710;2023-07-13T19:05:24;97784.13;;;22.62;42.55
76052;BME280;64751;48.708;9.710;2023-07-13T19:07:53;97788.53;;;22.54;42.60
76052;BME280;64751;48.708;9.710;2023-07-13T19:10:24;97792.19;;;22.46;43.59
76052;BME280;64751;48.708;9.710;2023-07-13T19:12:54;97796.50;;;22.35;44.12
76052;BME280;64751;48.708;9.710;2023-07-13T19:15:26;97801.97;;;22.23;44.85
76052;BME280;64751;48.708;9.710;2023-07-13T19:17:58;97809.06;;;22.15;44.92
76052;BME280;64751;48.708;9.710;2023-07-13T19:20:27;97816.88;;;22.05;45.58
76052;BME280;64751;48.708;9.710;2023-07-13T19:22:59;97815.00;;;21.93;47.10
76052;BME280;64751;48.708;9.710;2023-07-13T19:25:29;97822.88;;;21.86;47.36
76052;BME280;64751;48.708;9.710;2023-07-13T19:28:00;97812.22;;;21.78;47.46
76052;BME280;64751;48.708;9.710;2023-07-13T19:30:29;97825.47;;;21.71;47.13
76052;BME280;64751;48.708;9.710;2023-07-13T19:32:59;97831.88;;;21.66;47.49
76052;BME280;64751;48.708;9.710;2023-07-13T19:35:27;97828.66;;;21.60;48.23
76052;BME280;64751;48.708;9.710;2023-07-13T19:37:55;97833.38;;;21.51;49.09
76052;BME280;64751;48.708;9.710;2023-07-13T19:40:27;97841.25;;;21.44;49.34
76052;BME280;64751;48.708;9.710;2023-07-13T19:42:56;97848.41;;;21.40;49.51
76052;BME280;64751;48.708;9.710;2023-07-13T19:45:23;97848.88;;;21.30;49.21
76052;BME280;64751;48.708;9.710;2023-07-13T19:47:51;97853.56;;;21.21;49.82
76052;BME280;64751;48.708;9.710;2023-07-13T19:50:21;97850.00;;;21.05;50.08
76052;BME280;64751;48.708;9.710;2023-07-13T19:52:51;97859.28;;;20.95;50.92
76052;BME280;64751;48.708;9.710;2023-07-13T19:55:20;97862.28;;;20.82;50.81
76052;BME280;64751;48.708;9.710;2023-07-13T19:57:50;97863.84;;;20.71;51.53
76052;BME280;64751;48.708;9.710;2023-07-13T20:00:20;97871.06;;;20.58;51.50
76052;BME280;64751;48.708;9.710;2023-07-13T20:02:49;97871.63;;;20.52;51.72
76052;BME280;64751;48.708;9.710;2023-07-13T20:05:18;97870.94;;;20.43;51.77
76052;BME280;64751;48.708;9.710;2023-07-13T20:07:51;97873.25;;;20.32;51.88
76052;BME280;64751;48.708;9.710;2023-07-13T20:10:22;97879.81;;;20.22;51.72
76052;BME280;64751;48.708;9.710;2023-07-13T20:12:51;97874.03;;;20.12;51.53
76052;BME280;64751;48.708;9.710;2023-07-13T20:15:21;97888.00;;;20.05;52.49
76052;BME280;64751;48.708;9.710;2023-07-13T20:17:51;97882.56;;;19.93;52.36
76052;BME280;64751;48.708;9.710;2023-07-13T20:20:23;97883.28;;;19.82;52.96
76052;BME280;64751;48.708;9.710;2023-07-13T20:22:54;97889.03;;;19.72;53.23
76052;BME280;64751;48.708;9.710;2023-07-13T20:25:23;97892.72;;;19.67;52.83
76052;BME280;64751;48.708;9.710;2023-07-13T20:27:52;97890.22;;;19.62;52.77
76052;BME280;64751;48.708;9.710;2023-07-13T20:30:21;97892.63;;;19.55;53.01
76052;BME280;64751;48.708;9.710;2023-07-13T20:32:49;97890.66;;;19.43;53.89
76052;BME280;64751;48.708;9.710;2023-07-13T20:35:26;97903.44;;;19.38;53.22
76052;BME280;64751;48.708;9.710;2023-07-13T20:37:56;97905.03;;;19.39;53.72
76052;BME280;64751;48.708;9.710;2023-07-13T20:40:25;97897.31;;;19.29;54.22
76052;BME280;64751;48.708;9.710;2023-07-13T20:42:54;97900.84;;;19.21;53.79
76052;BME280;64751;48.708;9.710;2023-07-13T20:45:24;97910.81;;;19.12;53.65
76052;BME280;64751;48.708;9.710;2023-07-13T20:47:53;97911.16;;;19.02;54.40
76052;BME280;64751;48.708;9.710;2023-07-13T20:50:24;97908.19;;;18.95;55.08
76052;BME280;64751;48.708;9.710;2023-07-13T20:52:57;97907.25;;;18.91;55.35
76052;BME280;64751;48.708;9.710;2023-07-13T20:55:26;97909.97;;;18.82;55.38
76052;BME280;64751;48.708;9.710;2023-07-13T20:57:55;97915.66;;;18.80;55.70
76052;BME280;64751;48.708;9.710;2023-07-13T21:00:24;97908.88;;;18.74;56.05
76052;BME280;64751;48.708;9.710;2023-07-13T21:02:54;97912.84;;;18.68;56.59
76052;BME280;64751;48.708;9.710;2023-07-13T21:05:27;97910.66;;;18.62;56.78
76052;BME280;64751;48.708;9.710;2023-07-13T21:07:56;97918.06;;;18.56;57.22
76052;BME280;64751;48.708;9.710;2023-07-13T21:10:25;97917.13;;;18.44;57.60
76052;BME280;64751;48.708;9.710;2023-07-13T21:12:54;97923.75;;;18.46;57.82
76052;BME280;64751;48.708;9.710;2023-07-13T21:15:28;97923.25;;;18.44;57.56
76052;BME280;64751;48.708;9.710;2023-07-13T21:17:59;97914.31;;;18.40;58.22
76052;BME280;64751;48.708;9.710;2023-07-13T21:20:30;97915.41;;;18.39;57.71
76052;BME280;64751;48.708;9.710;2023-07-13T21:23:00;97917.13;;;18.44;58.99
76052;BME280;64751;48.708;9.710;2023-07-13T21:25:30;97920.47;;;18.49;57.34
76052;BME280;64751;48.708;9.710;2023-07-13T21:27:59;97917.00;;;18.49;57.20
76052;BME280;64751;48.708;9.710;2023-07-13T21:30:30;97929.56;;;18.48;56.84
76052;BME280;64751;48.708;9.710;2023-07-13T21:32:59;97924.50;;;18.38;57.23
76052;BME280;64751;48.708;9.710;2023-07-13T21:35:29;97925.78;;;18.32;58.19
76052;BME280;64751;48.708;9.710;2023-07-13T21:37:58;97923.28;;;18.27;58.80
76052;BME280;64751;48.708;9.710;2023-07-13T21:40:30;97923.59;;;18.26;58.85
76052;BME280;64751;48.708;9.710;2023-07-13T21:42:59;97916.84;;;18.11;59.87
76052;BME280;64751;48.708;9.710;2023-07-13T21:45:27;97918.41;;;18.12;59.35
76052;BME280;64751;48.708;9.710;2023-07-13T21:47:55;97930.22;;;18.11;59.58
76052;BME280;64751;48.708;9.710;2023-07-13T21:50:34;97931.00;;;18.03;58.79
76052;BME280;64751;48.708;9.710;2023-07-13T21:53:13;97932.41;;;17.92;59.33
76052;BME280;64751;48.708;9.710;2023-07-13T21:55:42;97925.47;;;17.82;59.49
76052;BME280;64751;48.708;9.710;2023-07-13T21:58:15;97930.84;;;17.91;58.94
